Time;durP1;ratioP1;P1;durP2;ratioP2;P2;SDS_P1;SDS_P2;PMS_P1;PMS_P2;Temp;Humidity;BMP_temperature;BMP_pressure;BME280_temperature;BME280_humidity;BME280_pressure;Samples;Min_cycle;Max_cycle;Signal;HPM_P1;HPM_P2
2022/08/20 00:00:42;;;;;;;7.30;6.50;;;20.50;99.90;;;;;;5036779;28;20128;-77
2022/08/20 00:03:20;;;;;;;7.40;5.63;;;20.60;99.90;;;;;;5036731;28;20382;-77
2022/08/20 00:05:53;;;;;;;6.25;5.65;;;20.50;99.90;;;;;;5036877;28;20052;-77
2022/08/20 00:08:20;;;;;;;10.10;7.65;;;20.50;99.90;;;;;;5036859;28;20087;-77
2022/08/20 00:10:47;;;;;;;10.35;8.35;;;20.50;99.90;;;;;;5037219;28;20096;-77
2022/08/20 00:13:18;;;;;;;9.60;7.43;;;20.40;99.90;;;;;;5037182;28;20089;-77
2022/08/20 00:15:45;;;;;;;8.30;7.45;;;20.40;99.90;;;;;;5036672;28;20053;-77
2022/08/20 00:18:11;;;;;;;8.25;7.18;;;20.40;99.90;;;;;;5036281;28;20520;-77
2022/08/20 00:20:42;;;;;;;10.30;6.80;;;20.30;99.90;;;;;;5035976;28;20042;-77
2022/08/20 00:23:08;;;;;;;7.68;6.80;;;20.40;99.90;;;;;;5035269;28;20049;-77
2022/08/20 00:25:34;;;;;;;8.70;7.80;;;20.40;99.90;;;;;;5036479;28;20136;-77
2022/08/20 00:28:02;;;;;;;7.90;7.10;;;20.30;99.90;;;;;;5035432;28;20052;-77
2022/08/20 00:30:30;;;;;;;8.35;7.35;;;20.30;99.90;;;;;;5036351;28;20116;-77
2022/08/20 00:33:00;;;;;;;6.38;5.70;;;20.30;99.90;;;;;;5036336;28;20168;-77
2022/08/20 00:35:28;;;;;;;8.82;7.63;;;20.20;99.90;;;;;;5036248;28;20045;-77
2022/08/20 00:37:54;;;;;;;8.35;7.45;;;20.20;99.90;;;;;;5036258;28;20075;-77
2022/08/20 00:40:23;;;;;;;9.90;8.18;;;20.00;99.90;;;;;;5035147;28;20057;-77
2022/08/20 00:42:54;;;;;;;9.05;8.07;;;20.10;99.90;;;;;;5035996;28;20033;-77
2022/08/20 00:45:20;;;;;;;9.20;8.27;;;20.10;99.90;;;;;;5035124;28;20049;-77
2022/08/20 00:47:46;;;;;;;9.88;6.95;;;20.20;99.90;;;;;;5035948;28;20056;-77
2022/08/20 00:50:17;;;;;;;9.70;7.65;;;20.10;99.90;;;;;;5035709;28;20508;-77
2022/08/20 00:52:47;;;;;;;10.93;8.75;;;20.10;99.90;;;;;;5035834;28;20048;-77
2022/08/20 00:55:14;;;;;;;10.57;8.52;;;20.10;99.90;;;;;;5035924;28;20042;-77
2022/08/20 00:57:53;;;;;;;11.02;9.18;;;19.90;99.90;;;;;;5034707;28;20099;-77
2022/08/20 01:00:27;;;;;;;9.73;8.73;;;20.00;99.90;;;;;;5035002;28;20395;-77
2022/08/20 01:02:54;;;;;;;9.57;8.50;;;20.00;99.90;;;;;;5035767;28;20128;-77
2022/08/20 01:05:22;;;;;;;8.43;7.10;;;20.00;99.90;;;;;;5035705;28;20045;-77
2022/08/20 01:07:52;;;;;;;10.48;8.73;;;19.90;99.90;;;;;;5035629;28;20092;-77
2022/08/20 01:10:25;;;;;;;10.38;9.07;;;19.90;99.90;;;;;;5035784;28;20049;-77
2022/08/20 01:12:52;;;;;;;14.27;9.50;;;19.90;99.90;;;;;;5035478;28;20489;-77
2022/08/20 01:15:21;;;;;;;10.43;8.63;;;19.90;99.90;;;;;;5035531;28;20057;-77
2022/08/20 01:17:51;;;;;;;9.85;8.50;;;19.80;99.90;;;;;;5035387;28;20077;-77
2022/08/20 01:20:35;;;;;;;9.80;8.55;;;19.70;99.90;;;;;;5035122;28;20551;-77
2022/08/20 01:23:31;;;;;;;10.20;9.18;;;19.80;99.90;;;;;;5035876;28;20068;-77
2022/08/20 01:26:21;;;;;;;10.73;8.05;;;19.80;99.90;;;;;;5035024;28;20378;-77
2022/08/20 01:28:51;;;;;;;9.52;8.07;;;19.80;99.90;;;;;;5018490;28;20053;-77
2022/08/20 01:31:28;;;;;;;11.80;8.35;;;19.80;99.90;;;;;;5035597;28;20046;-77
2022/08/20 01:33:55;;;;;;;10.70;8.57;;;19.80;99.90;;;;;;5035258;28;20113;-77
2022/08/20 01:36:26;;;;;;;9.82;7.32;;;19.80;99.90;;;;;;5035106;28;20045;-77
2022/08/20 01:38:53;;;;;;;9.65;8.65;;;19.70;99.90;;;;;;5034952;28;20049;-77
2022/08/20 01:41:42;;;;;;;9.88;8.75;;;19.70;99.90;;;;;;5033852;28;20041;-77
2022/08/20 01:44:08;;;;;;;10.23;8.55;;;19.70;99.90;;;;;;5035491;28;20049;-77
2022/08/20 01:46:37;;;;;;;8.35;7.47;;;19.70;99.90;;;;;;5034818;28;20045;-77
2022/08/20 01:49:24;;;;;;;10.05;8.45;;;19.70;99.90;;;;;;5034783;28;20486;-77
2022/08/20 01:51:52;;;;;;;7.82;6.97;;;19.70;99.90;;;;;;5034677;28;20052;-77
2022/08/20 01:54:19;;;;;;;9.45;7.65;;;19.70;99.90;;;;;;5034699;28;20508;-77
2022/08/20 01:57:05;;;;;;;11.68;8.52;;;19.70;99.90;;;;;;5034785;28;20099;-77
2022/08/20 01:59:31;;;;;;;9.85;7.78;;;19.60;99.90;;;;;;5033780;28;20100;-77
2022/08/20 02:01:57;;;;;;;11.32;7.13;;;19.60;99.90;;;;;;5033306;28;20049;-77
2022/08/20 02:04:24;;;;;;;8.40;7.50;;;19.60;99.90;;;;;;5035127;28;20436;-77
2022/08/20 02:06:54;;;;;;;11.73;8.15;;;19.50;99.90;;;;;;5034378;28;20056;-77
2022/08/20 02:09:20;;;;;;;10.25;7.50;;;19.50;99.90;;;;;;5034474;28;20049;-77
2022/08/20 02:11:46;;;;;;;12.13;7.75;;;19.60;99.90;;;;;;5034408;28;20064;-77
2022/08/20 02:14:14;;;;;;;9.43;7.57;;;19.50;99.90;;;;;;5034460;28;20041;-77
2022/08/20 02:16:43;;;;;;;9.45;7.93;;;19.50;99.90;;;;;;5034343;28;20041;-77
2022/08/20 02:19:32;;;;;;;10.70;7.65;;;19.50;99.90;;;;;;5034285;28;20508;-77
2022/08/20 02:22:03;;;;;;;11.45;7.47;;;19.40;99.90;;;;;;5034097;28;20480;-77
2022/08/20 02:24:29;;;;;;;10.20;6.40;;;19.40;99.90;;;;;;5034072;28;20142;-77
2022/08/20 02:26:55;;;;;;;8.85;6.60;;;19.30;99.90;;;;;;5034120;28;20132;-76
2022/08/20 02:29:20;;;;;;;9.53;6.93;;;19.30;99.90;;;;;;5034106;28;20463;-76
2022/08/20 02:31:46;;;;;;;9.47;7.47;;;19.30;99.90;;;;;;5033105;28;20042;-76
2022/08/20 02:34:13;;;;;;;11.23;8.00;;;19.30;99.90;;;;;;5034196;28;20049;-77
2022/08/20 02:36:41;;;;;;;11.68;7.07;;;19.30;99.90;;;;;;5034055;28;20439;-77
2022/08/20 02:39:08;;;;;;;11.73;7.13;;;19.30;99.90;;;;;;5034011;28;20093;-77
2022/08/20 02:41:36;;;;;;;11.50;6.85;;;19.20;99.90;;;;;;5034216;28;20046;-77
2022/08/20 02:44:02;;;;;;;6.95;5.72;;;19.20;99.90;;;;;;5033922;28;20499;-76
2022/08/20 02:46:27;;;;;;;9.50;6.35;;;19.20;99.90;;;;;;5032788;28;20045;-76
2022/08/20 02:48:56;;;;;;;9.57;6.20;;;19.20;99.90;;;;;;5033870;28;20041;-77
2022/08/20 02:51:22;;;;;;;7.10;6.28;;;19.20;99.90;;;;;;5033880;28;20041;-77
2022/08/20 02:53:48;;;;;;;8.57;5.77;;;19.10;99.90;;;;;;5034166;28;20037;-76
2022/08/20 02:56:14;;;;;;;13.77;6.43;;;19.20;99.90;;;;;;5032800;28;20049;-76
2022/08/20 02:58:40;;;;;;;8.30;6.40;;;19.10;99.90;;;;;;5034206;28;20760;-76
2022/08/20 03:01:11;;;;;;;11.07;5.97;;;19.10;99.90;;;;;;5033718;28;20049;-77
2022/08/20 03:03:38;;;;;;;10.55;6.95;;;19.10;99.90;;;;;;5033734;28;20041;-76
2022/08/20 03:06:04;;;;;;;;;;;19.10;99.90;;;;;;5034062;28;20047;-76
2022/08/20 03:08:29;;;;;;;8.65;5.70;;;19.00;99.90;;;;;;5033032;28;19921;-76
2022/08/20 03:10:55;;;;;;;9.97;6.07;;;19.00;99.90;;;;;;5033528;28;20045;-76
2022/08/20 03:13:22;;;;;;;8.43;5.87;;;18.90;99.90;;;;;;5034359;28;20096;-76
2022/08/20 03:15:51;;;;;;;8.93;6.13;;;18.90;99.90;;;;;;5033584;28;20069;-77
2022/08/20 03:18:18;;;;;;;12.15;7.32;;;18.90;99.90;;;;;;5033606;28;20136;-76
2022/08/20 03:20:44;;;;;;;8.52;6.57;;;18.80;99.90;;;;;;5033432;28;20049;-76
2022/08/20 03:23:10;;;;;;;8.13;6.03;;;18.80;99.90;;;;;;5033143;28;20046;-77
2022/08/20 03:25:36;;;;;;;8.87;6.47;;;18.80;99.90;;;;;;5033431;28;20056;-77
2022/08/20 03:28:01;;;;;;;12.10;6.60;;;18.90;99.90;;;;;;5033497;28;20394;-76
2022/08/20 03:30:28;;;;;;;8.43;5.80;;;18.80;99.90;;;;;;5033795;28;20042;-77
2022/08/20 03:32:54;;;;;;;10.73;7.22;;;18.70;99.90;;;;;;5033433;28;20056;-76
2022/08/20 03:35:22;;;;;;;10.32;6.07;;;18.70;99.90;;;;;;5033439;28;20045;-76
2022/08/20 03:37:48;;;;;;;12.02;7.13;;;18.70;99.90;;;;;;5033390;28;20045;-76
2022/08/20 03:40:22;;;;;;;10.15;6.25;;;18.60;99.90;;;;;;5033229;28;20064;-76
2022/08/20 03:42:48;;;;;;;8.00;6.18;;;18.60;99.90;;;;;;5033255;28;20080;-76
2022/08/20 03:45:14;;;;;;;14.53;7.20;;;18.40;99.90;;;;;;5033301;28;20081;-77
2022/08/20 03:47:40;;;;;;;12.40;6.97;;;18.60;99.90;;;;;;5033154;28;20045;-76
2022/08/20 03:50:08;;;;;;;10.38;6.18;;;18.50;99.90;;;;;;5033112;28;20424;-77
2022/08/20 03:52:35;;;;;;;7.35;6.13;;;18.40;99.90;;;;;;5032240;28;20045;-76
2022/08/20 03:55:00;;;;;;;8.32;6.45;;;18.40;99.90;;;;;;5033311;28;20060;-77
2022/08/20 03:57:27;;;;;;;8.10;6.17;;;18.40;99.90;;;;;;5033355;28;20128;-76
2022/08/20 03:59:53;;;;;;;10.15;6.82;;;18.40;99.90;;;;;;5033224;28;20049;-76
2022/08/20 04:02:19;;;;;;;9.90;6.10;;;18.20;99.90;;;;;;5031938;28;20049;-76
2022/08/20 04:04:44;;;;;;;8.77;5.93;;;18.30;99.90;;;;;;5032294;28;20139;-77
2022/08/20 04:07:17;;;;;;;9.77;5.73;;;18.30;99.90;;;;;;5033075;28;20469;-77
2022/08/20 04:09:43;;;;;;;8.05;5.25;;;18.30;99.90;;;;;;5031898;28;20042;-81
2022/08/20 04:12:12;;;;;;;9.33;6.93;;;18.20;99.90;;;;;;5032873;28;20080;-81
2022/08/20 04:14:39;;;;;;;7.47;5.65;;;18.20;99.90;;;;;;5032267;28;20083;-80
2022/08/20 04:17:09;;;;;;;9.93;6.72;;;18.20;99.90;;;;;;5033022;28;20413;-84
2022/08/20 04:19:36;;;;;;;8.60;6.10;;;18.20;99.90;;;;;;5032053;28;20060;-79
2022/08/20 04:22:01;;;;;;;6.22;5.22;;;18.20;99.90;;;;;;5036140;28;20042;-80
2022/08/20 04:24:27;;;;;;;6.30;4.30;;;18.10;99.90;;;;;;5035682;28;20090;-80
2022/08/20 04:26:53;;;;;;;9.47;5.00;;;18.10;99.90;;;;;;5036492;28;20041;-80
2022/08/20 04:29:20;;;;;;;8.60;6.00;;;18.00;99.90;;;;;;5036433;28;20056;-81
2022/08/20 04:31:46;;;;;;;;;;;18.00;99.90;;;;;;5019640;28;20088;-85
2022/08/20 04:34:12;;;;;;;7.78;5.55;;;18.00;99.90;;;;;;5036335;28;20340;-80
2022/08/20 04:36:38;;;;;;;8.53;5.23;;;18.00;99.90;;;;;;5035947;28;20048;-83
2022/08/20 04:39:04;;;;;;;9.57;5.90;;;17.90;99.90;;;;;;5036245;28;20057;-83
2022/08/20 04:41:30;;;;;;;9.13;5.73;;;18.00;99.90;;;;;;5018756;28;20462;-82
2022/08/20 04:43:57;;;;;;;7.43;5.03;;;18.00;99.90;;;;;;5014308;28;20125;-83
2022/08/20 04:46:26;;;;;;;8.60;4.60;;;18.00;99.90;;;;;;5015467;28;20092;-80
2022/08/20 04:48:52;;;;;;;7.82;4.93;;;18.00;99.90;;;;;;5015432;28;20096;-82
2022/08/20 04:51:18;;;;;;;8.40;5.57;;;18.00;99.90;;;;;;5031187;28;20046;-81
2022/08/20 04:53:44;;;;;;;8.23;5.57;;;18.00;99.90;;;;;;5014796;28;20054;-81
2022/08/20 04:56:11;;;;;;;10.73;6.80;;;18.00;99.90;;;;;;5016182;28;20088;-80
2022/08/20 04:58:39;;;;;;;8.30;5.35;;;18.00;99.90;;;;;;5016128;28;20042;-80
2022/08/20 05:01:08;;;;;;;8.85;5.38;;;18.00;99.90;;;;;;5016033;28;20045;-81
2022/08/20 05:03:36;;;;;;;8.27;5.35;;;18.00;99.90;;;;;;5014509;28;20104;-83
2022/08/20 05:06:04;;;;;;;6.57;4.70;;;18.00;99.90;;;;;;5015082;28;20061;-79
2022/08/20 05:08:31;;;;;;;8.88;5.03;;;18.10;99.90;;;;;;5015804;28;20516;-81
2022/08/20 05:10:57;;;;;;;7.38;4.85;;;18.10;99.90;;;;;;5014645;28;20484;-81
2022/08/20 05:13:23;;;;;;;8.70;5.30;;;18.10;99.90;;;;;;5015523;28;20177;-83
2022/08/20 05:15:49;;;;;;;7.80;5.03;;;18.00;99.90;;;;;;5014771;28;20115;-80
2022/08/20 05:18:18;;;;;;;8.45;5.80;;;18.00;99.90;;;;;;5014541;28;20054;-81
2022/08/20 05:20:45;;;;;;;10.88;5.75;;;18.40;99.90;;;;;;5015441;28;20046;-77
2022/08/20 05:23:12;;;;;;;10.38;5.97;;;18.10;99.90;;;;;;5019849;28;20044;-78
2022/08/20 05:25:39;;;;;;;9.48;5.90;;;18.10;99.90;;;;;;5033024;28;20056;-77
2022/08/20 05:28:15;;;;;;;8.75;5.82;;;18.10;99.90;;;;;;5034953;28;20051;-77
2022/08/20 05:30:44;;;;;;;8.27;5.70;;;18.10;99.90;;;;;;5033789;28;20072;-77
2022/08/20 05:33:12;;;;;;;10.35;6.10;;;18.00;99.90;;;;;;5033782;28;20382;-76
2022/08/20 05:35:38;;;;;;;10.65;5.50;;;18.00;99.90;;;;;;5035655;28;20081;-77
2022/08/20 05:38:06;;;;;;;10.80;5.57;;;18.00;99.90;;;;;;5035472;28;20440;-78
2022/08/20 05:40:32;;;;;;;11.32;5.40;;;18.00;99.90;;;;;;5035150;28;20046;-77
2022/08/20 05:42:58;;;;;;;10.93;5.83;;;18.00;99.90;;;;;;5033749;28;20472;-78
2022/08/20 05:45:23;;;;;;;10.43;5.50;;;18.00;99.90;;;;;;5035000;28;20145;-77
2022/08/20 05:47:49;;;;;;;12.33;5.23;;;18.00;99.90;;;;;;5034673;28;20044;-78
2022/08/20 05:50:16;;;;;;;9.63;4.53;;;18.00;99.90;;;;;;5034630;28;20045;-78
2022/08/20 05:52:42;;;;;;;7.78;5.10;;;18.00;99.90;;;;;;5034816;28;20037;-76
2022/08/20 05:55:12;;;;;;;10.30;6.13;;;18.00;99.90;;;;;;5035129;28;20498;-78
2022/08/20 05:57:38;;;;;;;8.57;4.90;;;18.10;99.90;;;;;;5034761;28;20471;-77
2022/08/20 06:00:07;;;;;;;7.47;4.60;;;18.10;99.90;;;;;;5034705;28;20053;-78
2022/08/20 06:05:18;;;;;;;10.80;5.25;;;18.10;99.90;;;;;;5035076;28;20057;-78
2022/08/20 06:07:44;;;;;;;8.90;4.90;;;18.10;99.90;;;;;;5034572;28;20060;-77
2022/08/20 06:10:11;;;;;;;9.10;4.85;;;18.10;99.90;;;;;;5034549;28;20140;-77
2022/08/20 06:12:37;;;;;;;10.65;5.20;;;18.00;99.90;;;;;;5034595;28;20057;-76
2022/08/20 06:15:04;;;;;;;10.90;5.43;;;18.00;99.90;;;;;;5034184;28;20187;-78
2022/08/20 06:17:32;;;;;;;7.80;5.18;;;18.00;99.90;;;;;;5033233;28;20281;-78
2022/08/20 06:20:00;;;;;;;9.98;5.50;;;18.00;99.90;;;;;;5034355;28;20037;-76
2022/08/20 06:22:26;;;;;;;10.45;4.90;;;17.90;99.90;;;;;;5034465;28;20037;-76
2022/08/20 06:24:52;;;;;;;11.27;5.17;;;18.00;99.90;;;;;;5034271;28;20041;-76
2022/08/20 06:27:18;;;;;;;12.17;5.13;;;18.10;99.90;;;;;;5034235;28;20543;-78
2022/08/20 06:29:44;;;;;;;9.52;5.10;;;18.10;99.90;;;;;;5034178;28;20794;-78
2022/08/20 06:32:09;;;;;;;9.33;4.80;;;18.20;99.90;;;;;;5034216;28;20049;-77
2022/08/20 06:34:35;;;;;;;8.43;4.37;;;18.20;99.90;;;;;;5034115;28;20092;-77
2022/08/20 06:37:01;;;;;;;11.77;5.13;;;18.40;99.90;;;;;;5034085;28;20045;-77
2022/08/20 06:39:28;;;;;;;10.90;4.27;;;18.60;99.90;;;;;;5034218;28;20084;-77
2022/08/20 06:41:57;;;;;;;9.43;3.90;;;18.60;99.90;;;;;;5034003;28;20064;-77
2022/08/20 06:44:23;;;;;;;11.27;4.80;;;18.70;99.90;;;;;;5033269;28;20041;-76
2022/08/20 06:46:48;;;;;;;8.50;3.53;;;18.60;99.90;;;;;;5034062;28;20495;-78
2022/08/20 06:49:14;;;;;;;9.73;3.43;;;18.80;99.90;;;;;;5034022;28;20570;-77
2022/08/20 06:51:39;;;;;;;14.40;4.10;;;18.90;99.90;;;;;;5034143;28;20056;-77
2022/08/20 06:54:05;;;;;;;9.23;3.73;;;18.80;99.90;;;;;;5033931;28;20037;-77
2022/08/20 06:56:32;;;;;;;9.50;3.70;;;18.90;99.90;;;;;;5033943;28;20503;-78
2022/08/20 06:58:58;;;;;;;;;;;18.90;99.90;;;;;;5034236;28;20041;-77
2022/08/20 07:01:24;;;;;;;9.75;3.42;;;19.00;99.90;;;;;;5033777;28;19931;-77
2022/08/20 07:03:49;;;;;;;9.07;3.33;;;19.10;99.90;;;;;;5033699;28;20037;-78
2022/08/20 07:06:16;;;;;;;8.87;3.00;;;19.20;99.90;;;;;;5033787;28;20053;-78
2022/08/20 07:08:42;;;;;;;11.10;2.97;;;19.20;99.90;;;;;;5032856;28;20104;-78
2022/08/20 07:11:09;;;;;;;8.02;2.72;;;19.20;99.90;;;;;;5033461;28;20128;-78
2022/08/20 07:13:36;;;;;;;8.38;2.75;;;19.20;99.90;;;;;;5033858;28;20515;-77
2022/08/20 07:16:03;;;;;;;9.90;2.63;;;19.20;99.90;;;;;;5033018;28;20041;-76
2022/08/20 07:18:30;;;;;;;9.13;2.58;;;19.30;99.90;;;;;;5033877;28;20089;-77
2022/08/20 07:20:56;;;;;;;8.73;3.05;;;19.30;99.90;;;;;;5033793;28;20045;-78
2022/08/20 07:23:23;;;;;;;10.75;2.92;;;19.30;99.90;;;;;;5033791;28;20041;-77
2022/08/20 07:25:48;;;;;;;9.10;2.80;;;19.30;99.90;;;;;;5033373;28;20132;-77
2022/08/20 07:28:20;;;;;;;11.43;2.93;;;19.30;99.90;;;;;;5033703;28;20080;-78
2022/08/20 07:33:31;;;;;;;6.70;2.40;;;19.20;99.90;;;;;;5033671;28;20041;-77
2022/08/20 07:35:59;;;;;;;9.00;2.60;;;19.20;99.90;;;;;;5033383;28;20037;-77
2022/08/20 07:38:26;;;;;;;8.98;2.53;;;19.20;99.90;;;;;;5033660;28;20488;-79
2022/08/20 07:40:55;;;;;;;6.63;2.60;;;19.10;99.90;;;;;;5033442;28;20054;-78
2022/08/20 07:43:22;;;;;;;8.55;3.08;;;19.10;99.90;;;;;;5031941;28;20033;-76
2022/08/20 07:45:49;;;;;;;6.57;2.42;;;19.10;99.90;;;;;;5031853;28;20042;-78
2022/08/20 07:48:16;;;;;;;7.32;2.58;;;19.10;99.90;;;;;;5031579;28;20042;-79
2022/08/20 07:50:42;;;;;;;9.40;2.42;;;19.10;99.90;;;;;;5033626;28;20451;-76
2022/08/20 07:53:10;;;;;;;8.05;2.47;;;19.20;99.90;;;;;;5033430;28;20046;-78
2022/08/20 07:55:36;;;;;;;8.18;2.20;;;19.30;99.90;;;;;;5035539;28;20063;-78
2022/08/20 07:58:08;;;;;;;10.20;2.87;;;19.60;99.90;;;;;;5037299;28;20033;-75
2022/08/20 08:00:34;;;;;;;8.65;2.30;;;19.70;99.90;;;;;;5037390;28;20045;-76
2022/08/20 08:03:00;;;;;;;9.17;2.10;;;19.90;99.90;;;;;;5037248;28;20496;-77
2022/08/20 08:05:26;;;;;;;7.77;1.80;;;20.20;99.90;;;;;;5037023;28;20291;-76
2022/08/20 08:07:52;;;;;;;8.17;1.80;;;20.30;99.90;;;;;;5037031;28;20053;-76
2022/08/20 08:10:21;;;;;;;8.47;2.20;;;20.40;99.90;;;;;;5019134;28;20125;-76
2022/08/20 08:12:54;;;;;;;5.88;1.60;;;20.30;99.90;;;;;;5036550;28;20115;-76
2022/08/20 08:15:27;;;;;;;7.10;1.42;;;20.40;99.90;;;;;;5035859;28;20045;-76
2022/08/20 08:17:58;;;;;;;6.20;1.92;;;20.40;99.90;;;;;;5036623;28;20041;-76
2022/08/20 08:20:23;;;;;;;6.55;1.60;;;20.30;99.90;;;;;;5036901;28;20109;-77
2022/08/20 08:22:50;;;;;;;6.17;1.50;;;20.30;99.90;;;;;;5036710;28;20037;-76
2022/08/20 08:25:16;;;;;;;6.90;1.90;;;20.30;99.90;;;;;;5036922;28;20129;-76
2022/08/20 08:27:42;;;;;;;7.37;1.60;;;20.40;99.90;;;;;;5036717;28;20079;-77
2022/08/20 08:30:09;;;;;;;5.80;1.60;;;20.50;99.90;;;;;;5035777;28;20057;-76
2022/08/20 08:33:26;;;;;;;5.22;1.58;;;20.80;99.90;;;;;;5036578;28;20091;-77
2022/08/20 08:35:22;;;;;;;7.37;1.33;;;20.90;99.90;;;;;;5036559;28;20485;-77
2022/08/20 08:37:48;;;;;;;5.27;1.40;;;21.10;99.90;;;;;;5035970;28;20079;-77
2022/08/20 08:40:14;;;;;;;4.73;1.33;;;21.20;99.90;;;;;;5036567;28;20397;-77
2022/08/20 08:42:44;;;;;;;6.97;1.93;;;21.30;99.90;;;;;;5036358;28;20045;-77
2022/08/20 08:45:11;;;;;;;4.35;1.55;;;21.30;99.90;;;;;;5036413;28;20049;-76
2022/08/20 08:47:40;;;;;;;4.72;1.35;;;21.40;99.90;;;;;;5035511;28;20388;-76
2022/08/20 08:50:08;;;;;;;6.60;1.40;;;21.50;99.90;;;;;;5036219;28;20049;-76
2022/08/20 08:52:39;;;;;;;5.57;1.58;;;21.60;99.90;;;;;;5035770;28;20059;-76
2022/08/20 08:55:09;;;;;;;5.28;1.35;;;21.60;99.90;;;;;;5036100;28;20512;-76
2022/08/20 08:57:34;;;;;;;7.32;1.45;;;21.60;99.90;;;;;;5036440;28;20448;-77
2022/08/20 09:00:15;;;;;;;3.67;1.20;;;21.70;99.90;;;;;;5034980;28;20080;-77
2022/08/20 09:03:03;;;;;;;5.32;1.38;;;21.70;99.90;;;;;;5034042;28;20140;-77
2022/08/20 09:05:50;;;;;;;;;;;21.90;99.90;;;;;;5033708;28;20041;-77
2022/08/20 09:08:23;;;;;;;5.32;1.38;;;21.80;99.90;;;;;;5034924;28;19944;-76
2022/08/20 09:10:49;;;;;;;4.57;1.20;;;21.90;99.90;;;;;;5035958;28;20060;-77
2022/08/20 09:13:14;;;;;;;5.75;1.58;;;21.80;99.90;;;;;;5036045;28;20045;-77
2022/08/20 09:15:40;;;;;;;4.63;1.20;;;21.90;99.90;;;;;;5035703;28;20052;-77
2022/08/20 09:18:06;;;;;;;4.10;1.23;;;21.90;99.90;;;;;;5035752;28;20148;-77
2022/08/20 09:20:31;;;;;;;6.43;1.20;;;22.00;99.90;;;;;;5035515;28;20041;-77
2022/08/20 09:22:57;;;;;;;5.33;1.57;;;22.10;99.90;;;;;;5035064;28;20469;-77
2022/08/20 09:25:23;;;;;;;4.43;1.40;;;22.10;99.90;;;;;;5035235;28;20049;-77
2022/08/20 09:27:48;;;;;;;4.23;1.43;;;22.20;99.90;;;;;;5035315;28;20045;-77
2022/08/20 09:30:15;;;;;;;5.43;1.33;;;22.10;99.90;;;;;;5035651;28;20056;-77
2022/08/20 09:32:42;;;;;;;4.95;1.10;;;22.20;99.90;;;;;;5035515;28;20049;-77
2022/08/20 09:35:08;;;;;;;5.47;1.60;;;22.30;99.90;;;;;;5035318;28;20124;-77
2022/08/20 09:37:34;;;;;;;;;;;22.40;99.90;;;;;;5035570;28;20053;-77
2022/08/20 09:40:00;;;;;;;4.10;1.10;;;22.50;99.90;;;;;;5035151;28;19921;-76
2022/08/20 09:42:30;;;;;;;5.63;1.50;;;22.50;99.90;;;;;;5035078;28;20046;-76
2022/08/20 09:44:57;;;;;;;4.53;1.25;;;22.60;99.90;;;;;;5033867;28;20131;-77
2022/08/20 09:47:24;;;;;;;6.47;1.33;;;22.70;99.90;;;;;;5035014;28;20047;-76
2022/08/20 09:49:50;;;;;;;;;;;22.80;99.90;;;;;;5035378;28;20049;-76
2022/08/20 09:52:28;;;;;;;4.07;1.30;;;22.80;99.90;;;;;;5034879;28;20332;-77
2022/08/20 09:55:04;;;;;;;2.95;1.10;;;22.90;99.90;;;;;;5034911;28;20056;-76
2022/08/20 09:57:30;;;;;;;3.65;1.10;;;23.00;99.90;;;;;;5035157;28;20133;-77
2022/08/20 10:00:00;;;;;;;4.00;1.20;;;23.00;99.90;;;;;;5035015;28;20112;-76
2022/08/20 10:02:26;;;;;;;6.25;1.40;;;23.20;99.90;;;;;;5034704;28;20081;-76
2022/08/20 10:04:51;;;;;;;4.75;1.38;;;23.10;99.90;;;;;;5033193;28;20492;-76
2022/08/20 10:07:17;;;;;;;4.37;1.70;;;23.20;99.90;;;;;;5035039;28;20045;-76
2022/08/20 10:09:43;;;;;;;3.22;1.00;;;23.10;99.90;;;;;;5034911;28;20077;-77
2022/08/20 10:12:08;;;;;;;2.73;0.97;;;23.20;99.90;;;;;;5033117;28;20045;-76
2022/08/20 10:14:34;;;;;;;4.37;1.17;;;23.30;99.90;;;;;;5034627;28;20045;-76
2022/08/20 10:17:01;;;;;;;3.33;1.07;;;23.40;99.90;;;;;;5034378;28;20124;-77
2022/08/20 10:19:29;;;;;;;2.63;1.00;;;23.50;99.90;;;;;;5033179;28;20049;-77
2022/08/20 10:21:54;;;;;;;3.38;1.10;;;23.50;99.90;;;;;;5033404;28;20127;-77
2022/08/20 10:24:21;;;;;;;4.17;1.00;;;23.50;97.10;;;;;;5034346;28;20124;-76
2022/08/20 10:26:48;;;;;;;4.20;1.00;;;23.50;96.20;;;;;;5034206;28;20276;-76
2022/08/20 10:29:14;;;;;;;5.15;1.27;;;23.40;96.80;;;;;;5034286;28;20053;-76
2022/08/20 10:31:40;;;;;;;6.50;1.25;;;23.60;97.50;;;;;;5033181;28;20041;-77
2022/08/20 10:34:06;;;;;;;5.82;1.20;;;23.50;96.90;;;;;;5034149;28;20401;-76
2022/08/20 10:36:32;;;;;;;4.07;1.43;;;23.60;96.40;;;;;;5034108;28;20045;-77
2022/08/20 10:38:58;;;;;;;5.57;1.37;;;23.60;96.70;;;;;;5034061;28;20041;-76
2022/08/20 10:41:23;;;;;;;4.47;1.47;;;23.70;97.50;;;;;;5034684;28;20473;-76
2022/08/20 10:43:49;;;;;;;6.07;1.40;;;23.70;97.30;;;;;;5033844;28;20381;-77
2022/08/20 10:46:15;;;;;;;3.67;1.20;;;23.80;97.70;;;;;;5033983;28;20041;-76
2022/08/20 10:48:40;;;;;;;6.23;1.20;;;24.00;97.50;;;;;;5033893;28;20142;-77
2022/08/20 10:51:06;;;;;;;3.97;1.00;;;24.00;98.30;;;;;;5033948;28;20041;-76
2022/08/20 10:53:32;;;;;;;5.43;1.50;;;24.10;98.90;;;;;;5033889;28;20081;-76
2022/08/20 10:55:57;;;;;;;3.35;1.00;;;24.20;98.80;;;;;;5034104;28;20045;-76
2022/08/20 10:58:24;;;;;;;4.60;1.17;;;24.30;98.60;;;;;;5033513;28;20124;-76
2022/08/20 11:00:50;;;;;;;;;;;24.40;97.90;;;;;;5034209;28;20041;-77
2022/08/20 11:03:15;;;;;;;2.88;0.90;;;24.50;96.40;;;;;;5032549;28;19972;-76
2022/08/20 11:05:41;;;;;;;5.77;1.20;;;24.50;96.80;;;;;;5033718;28;20046;-77
2022/08/20 11:08:07;;;;;;;5.40;1.37;;;24.40;96.00;;;;;;5033646;28;20497;-76
2022/08/20 11:10:34;;;;;;;4.97;1.13;;;24.50;96.00;;;;;;5033706;28;20045;-76
2022/08/20 11:13:02;;;;;;;2.33;0.88;;;24.60;96.50;;;;;;5033510;28;20054;-76
2022/08/20 11:15:28;;;;;;;4.70;1.40;;;24.50;95.80;;;;;;5033627;28;20051;-77
2022/08/20 11:17:55;;;;;;;3.35;1.02;;;24.20;95.90;;;;;;5033562;28;20050;-77
2022/08/20 11:20:23;;;;;;;4.63;1.30;;;24.20;96.50;;;;;;5034065;28;20060;-77
2022/08/20 11:22:49;;;;;;;5.85;1.50;;;24.30;96.10;;;;;;5032672;28;20053;-76
2022/08/20 11:25:15;;;;;;;4.53;1.48;;;24.30;96.30;;;;;;5033585;28;20049;-76
2022/08/20 11:27:43;;;;;;;4.47;1.40;;;24.10;96.20;;;;;;5033599;28;20137;-76
2022/08/20 11:30:13;;;;;;;5.05;1.45;;;24.00;96.00;;;;;;5035937;28;20098;-76
2022/08/20 11:32:38;;;;;;;5.47;1.30;;;23.90;96.60;;;;;;5037478;28;20404;-76
2022/08/20 11:35:05;;;;;;;3.33;1.20;;;23.80;96.90;;;;;;5037458;28;20041;-76
2022/08/20 11:37:31;;;;;;;;;;;23.90;96.80;;;;;;5038159;28;20052;-76
2022/08/20 11:39:56;;;;;;;5.88;1.50;;;24.10;95.60;;;;;;5037339;28;20360;-76
2022/08/20 11:42:22;;;;;;;4.80;1.17;;;24.10;95.90;;;;;;5036113;28;20384;-76
2022/08/20 11:44:47;;;;;;;4.43;1.30;;;24.20;95.80;;;;;;5037290;28;20081;-76
2022/08/20 11:47:23;;;;;;;4.57;1.30;;;24.10;95.70;;;;;;5037106;28;20057;-76
2022/08/20 11:50:00;;;;;;;5.93;1.35;;;24.00;95.10;;;;;;5037144;28;20102;-75
2022/08/20 11:52:27;;;;;;;5.18;1.20;;;23.90;95.00;;;;;;5035891;28;20554;-76
2022/08/20 11:54:52;;;;;;;4.45;1.20;;;23.80;95.60;;;;;;5037149;28;20499;-76
2022/08/20 11:57:23;;;;;;;4.73;1.13;;;23.60;95.50;;;;;;5037198;28;20045;-76
2022/08/20 11:59:50;;;;;;;4.68;1.20;;;23.70;96.30;;;;;;5037020;28;20048;-75
2022/08/20 12:02:16;;;;;;;3.55;1.10;;;23.60;96.20;;;;;;5037012;28;20064;-76
2022/08/20 12:04:42;;;;;;;6.53;1.20;;;23.60;96.60;;;;;;5037018;28;20381;-76
2022/08/20 12:07:13;;;;;;;3.63;1.20;;;23.50;96.90;;;;;;5036995;28;20049;-76
2022/08/20 12:09:40;;;;;;;4.20;1.20;;;23.30;94.80;;;;;;5036897;28;20041;-76
2022/08/20 12:12:06;;;;;;;6.47;1.70;;;23.40;96.40;;;;;;5037005;28;20049;-77
2022/08/20 12:14:32;;;;;;;6.22;1.60;;;23.50;96.00;;;;;;5036828;28;20072;-75
2022/08/20 12:17:10;;;;;;;5.30;1.23;;;23.60;95.70;;;;;;5037171;28;20045;-76
2022/08/20 12:19:38;;;;;;;4.55;1.27;;;23.60;96.40;;;;;;5036796;28;20385;-77
2022/08/20 12:22:03;;;;;;;4.32;1.30;;;23.60;96.60;;;;;;5035622;28;20128;-76
2022/08/20 12:24:29;;;;;;;3.83;1.10;;;23.70;96.30;;;;;;5035379;28;20137;-76
2022/08/20 12:26:54;;;;;;;4.77;1.30;;;23.60;95.90;;;;;;5036652;28;20366;-76
2022/08/20 12:29:20;;;;;;;5.40;1.00;;;23.60;95.70;;;;;;5036633;28;20049;-77
2022/08/20 12:31:45;;;;;;;6.23;1.63;;;23.60;96.20;;;;;;5036470;28;20037;-76
2022/08/20 12:34:11;;;;;;;3.27;1.13;;;23.60;96.00;;;;;;5036621;28;20052;-76
2022/08/20 12:36:37;;;;;;;4.03;1.30;;;23.70;96.60;;;;;;5036510;28;20045;-76
2022/08/20 12:39:02;;;;;;;3.97;1.20;;;23.90;96.20;;;;;;5036679;28;20142;-76
2022/08/20 12:41:28;;;;;;;5.13;1.40;;;24.20;96.40;;;;;;5035191;28;20049;-77
2022/08/20 12:43:53;;;;;;;4.83;1.27;;;24.60;95.40;;;;;;5036238;28;20046;-77
2022/08/20 12:46:19;;;;;;;5.20;1.30;;;24.90;94.80;;;;;;5036662;28;20042;-76
2022/08/20 12:48:44;;;;;;;3.37;1.10;;;25.10;93.70;;;;;;5035157;28;20120;-77
2022/08/20 12:51:10;;;;;;;6.90;1.23;;;25.30;94.30;;;;;;5035930;28;20046;-77
2022/08/20 12:53:35;;;;;;;3.33;1.13;;;25.50;94.60;;;;;;5036131;28;20049;-77
2022/08/20 12:56:03;;;;;;;4.63;1.10;;;25.50;94.00;;;;;;5036174;28;20049;-77